David B — WDI7661 — position and weather

sailwx.info

Track history (hours):
 
Tides and Currents Weather Stations Pressure Air Temp Water Temp Dewpoint Dewpoint Depression Visibility Wind Speed Wind Dir Waves Ship Positions

David B

Owner: G & H TOWING COMPANY, Galveston, TX. More information available from US FCC via Universal Licensing System and Coast Guard Vessel Documentation Center.

Last reported at 2018-May-22 23:06 UTC. Time now 2018-May-23 15:13 UTC.
Position N 29°44' W 095°09'.

Length 24 m; draft 5.4 m.

Type: Tug. MMSI: 367730910.

Date/timePositionNaut miles runAvg speedWind from/ knotsBaromVisibWave heightAir tempDewpointWater temp
2018-May-22 23:06N 29°44' W 095°09'1 0.2
2018-May-22 18:37N 29°45' W 095°10'2 0.6
2018-May-22 15:15N 29°44' W 095°08'1 0.6
2018-May-22 13:13N 29°44' W 095°07'2 7.6
2018-May-22 12:55N 29°44' W 095°09'6 1.8
2018-May-22 09:38N 29°44' W 095°02'2 7.0
2018-May-22 09:22N 29°42' W 095°01'3 7.7
2018-May-22 09:00N 29°40' W 094°59'4 7.2
2018-May-22 08:30N 29°37' W 094°58'3 5.3
2018-May-22 07:59N 29°37' W 095°02'0 0.0
2018-May-22 07:29N 29°37' W 095°02'0 0.0
2018-May-22 06:59N 29°37' W 095°02'0 0.0
2018-May-22 06:29N 29°37' W 095°02'0 0.0
2018-May-22 05:59N 29°37' W 095°02'0 0.0
2018-May-22 05:29N 29°37' W 095°02'0 0.0
2018-May-22 04:59N 29°37' W 095°02'0 0.5
2018-May-22 04:30N 29°37' W 095°01'1 2.1
2018-May-22 04:00N 29°37' W 095°00'1 1.1
2018-May-22 03:20N 29°37' W 095°01'0 0.0
2018-May-22 02:59N 29°37' W 095°01'0 0.0
2018-May-22 02:26N 29°37' W 095°01'0 0.0
2018-May-22 01:59N 29°37' W 095°01'0 0.0
2018-May-22 01:29N 29°37' W 095°01'0 0.0
2018-May-22 00:59N 29°37' W 095°01'0 0.0
2018-May-22 00:29N 29°37' W 095°01'0 0.0
2018-May-21 23:59N 29°37' W 095°01'0 0.0
2018-May-21 23:30N 29°37' W 095°01'3 6.3
2018-May-21 23:00N 29°38' W 094°58'3 5.7
2018-May-21 22:28N 29°41' W 094°59'1 1.6
2018-May-21 21:49N 29°41' W 095°00'1 4.1
2018-May-21 21:30N 29°41' W 094°59'2 2.1
2018-May-21 20:25N 29°42' W 095°01'3 6.4
2018-May-21 20:00N 29°41' W 094°59'3 0.7
2018-May-21 16:22N 29°42' W 095°01'2 5.0
2018-May-21 16:00N 29°41' W 094°60'0 0.2
2018-May-21 15:28N 29°41' W 094°60'0 0.0
2018-May-21 14:46N 29°41' W 094°60'0 0.0
2018-May-21 14:13N 29°41' W 094°60'0 0.0
2018-May-21 13:46N 29°41' W 094°60'0 0.0
2018-May-21 13:16N 29°41' W 094°60'0 0.0
2018-May-21 12:58N 29°41' W 094°60'1 1.4
2018-May-21 12:28N 29°41' W 095°01'0 0.0
2018-May-21 11:47N 29°41' W 095°01'0 0.0
2018-May-21 11:28N 29°41' W 095°01'1 2.5
2018-May-21 11:00N 29°42' W 094°60'2 1.0
2018-May-21 09:25N 29°43' W 095°01'2 5.5
2018-May-21 09:00N 29°41' W 094°59'0 0.4
2018-May-21 08:29N 29°41' W 094°60'0 0.0
2018-May-21 08:00N 29°41' W 094°60'0 0.0
2018-May-21 07:30N 29°41' W 094°60'0 0.0
2018-May-21 06:14N 29°41' W 094°60'0 0.0
2018-May-21 05:45N 29°41' W 094°60'0 0.0
2018-May-21 05:20N 29°41' W 094°60'0 0.0
2018-May-21 04:59N 29°41' W 094°60'0 0.0
2018-May-21 04:29N 29°41' W 094°60'0 0.0
2018-May-21 03:50N 29°41' W 094°60'0 0.0
2018-May-21 03:26N 29°41' W 094°60'0 0.0
2018-May-21 02:59N 29°41' W 094°60'0 0.0
2018-May-21 02:23N 29°41' W 094°60'0 0.0
2018-May-21 01:59N 29°41' W 094°60'0 0.0
2018-May-21 01:29N 29°41' W 094°60'1 2.0
2018-May-21 00:59N 29°40' W 094°59'1 1.3
2018-May-21 00:27N 29°41' W 094°59'0 0.0
2018-May-20 23:57N 29°41' W 094°59'3 4.9
2018-May-20 23:26N 29°39' W 094°58'2 5.2
2018-May-20 23:00N 29°37' W 094°59'1 1.8
2018-May-20 22:31N 29°37' W 095°01'0 0.0
2018-May-20 22:00N 29°37' W 095°01'0 0.0
2018-May-20 21:30N 29°37' W 095°01'0 0.0
2018-May-20 21:00N 29°37' W 095°01'0 0.0
2018-May-20 20:30N 29°37' W 095°01'0 0.0
2018-May-20 20:00N 29°37' W 095°01'1 1.7
2018-May-20 19:28N 29°37' W 095°02'0 0.0
2018-May-20 18:58N 29°37' W 095°02'0 0.0
2018-May-20 18:28N 29°37' W 095°02'0 0.0
2018-May-20 17:58N 29°37' W 095°02'0 0.0
2018-May-20 17:28N 29°37' W 095°02'0 0.0
2018-May-20 16:58N 29°37' W 095°02'0 0.0
2018-May-20 16:29N 29°37' W 095°02'0 0.1
2018-May-20 15:59N 29°37' W 095°02'0 0.2
2018-May-20 15:31N 29°37' W 095°02'0 0.0
2018-May-20 15:00N 29°37' W 095°02'0 0.0
2018-May-20 14:30N 29°37' W 095°02'0 0.8
2018-May-20 13:59N 29°37' W 095°01'0 0.0
2018-May-20 13:26N 29°37' W 095°01'0 0.0
2018-May-20 12:59N 29°37' W 095°01'0 0.0
2018-May-20 12:29N 29°37' W 095°01'0 0.0
2018-May-20 11:59N 29°37' W 095°01'0 0.0
2018-May-20 11:29N 29°37' W 095°01'0 0.0
2018-May-20 11:00N 29°37' W 095°01'0 0.6
2018-May-20 10:30N 29°37' W 095°01'1 1.3
2018-May-20 10:00N 29°37' W 095°01'1 1.0
2018-May-20 09:29N 29°37' W 095°01'0 0.0
2018-May-20 09:00N 29°37' W 095°01'0 0.0
2018-May-20 08:30N 29°37' W 095°01'0 0.0
2018-May-20 08:00N 29°37' W 095°01'0 0.0
2018-May-20 07:30N 29°37' W 095°01'0 0.0
2018-May-20 07:00N 29°37' W 095°01'0 0.0
2018-May-20 06:30N 29°37' W 095°01'0 0.0
2018-May-20 05:57N 29°37' W 095°01'0 0.0
2018-May-20 05:30N 29°37' W 095°01'0 0.0
2018-May-20 05:00N 29°37' W 095°01'0 0.0
2018-May-20 04:27N 29°37' W 095°01'0 0.0
2018-May-20 04:00N 29°37' W 095°01'0 0.0
2018-May-20 03:30N 29°37' W 095°01'0 0.0
2018-May-20 02:55N 29°37' W 095°01'0 0.8
2018-May-20 02:30N 29°37' W 095°01'0 0.4
2018-May-20 02:00N 29°37' W 095°01'2 3.2
2018-May-20 01:30N 29°37' W 094°59'0 0.0
2018-May-20 01:01N 29°37' W 094°59'1 1.3
2018-May-20 00:28N 29°37' W 095°00'0 0.0
2018-May-19 23:58N 29°37' W 095°00'0 0.0
2018-May-19 23:28N 29°37' W 095°00'0 0.0
2018-May-19 22:58N 29°37' W 095°00'0 0.0
2018-May-19 22:28N 29°37' W 095°00'0 0.0
2018-May-19 21:58N 29°37' W 095°00'0 0.0
2018-May-19 21:28N 29°37' W 095°00'0 0.0
2018-May-19 20:58N 29°37' W 095°00'0 0.0
2018-May-19 20:28N 29°37' W 095°00'0 0.0
2018-May-19 19:58N 29°37' W 095°00'0 0.0
2018-May-19 19:28N 29°37' W 095°00'0 0.2
2018-May-19 19:00N 29°37' W 095°00'1 1.2
2018-May-19 18:30N 29°37' W 095°01'1 1.4
2018-May-19 18:00N 29°37' W 095°00'3 5.6
2018-May-19 17:30N 29°36' W 094°57'2 4.1
2018-May-19 17:00N 29°38' W 094°58'4 8.2
2018-May-19 16:30N 29°42' W 094°60'4 6.9
2018-May-19 15:54N 29°44' W 095°04'2 1.0
2018-May-19 13:30N 29°45' W 095°06'0 0.2
2018-May-19 12:58N 29°45' W 095°06'5 3.7
2018-May-19 11:35N 29°42' W 095°01'1 8.8
2018-May-19 11:26N 29°42' W 094°60'1 2.1
2018-May-19 10:57N 29°41' W 094°60'0 0.4
2018-May-19 10:30N 29°41' W 094°60'2 4.5
2018-May-19 10:00N 29°39' W 094°58'0 0.2
2018-May-19 09:30N 29°39' W 094°58'2 4.9
2018-May-19 09:00N 29°41' W 094°59'2 0.1
2018-May-18 09:40N 29°42' W 095°01'0 0.0
2018-May-18 09:16N 29°42' W 095°01'0 0.0
2018-May-18 09:00N 29°42' W 095°01'1 2.8
2018-May-18 08:30N 29°42' W 094°60'1 2.1
2018-May-18 08:00N 29°41' W 095°00'0 0.2
2018-May-18 07:00N 29°41' W 095°00'1 2.6
2018-May-18 06:30N 29°42' W 095°01'2 3.1
2018-May-18 06:00N 29°43' W 095°01'0 1.0
2018-May-18 05:30N 29°44' W 095°02'0 0.9
2018-May-18 05:00N 29°44' W 095°01'0 0.0
2018-May-18 04:30N 29°44' W 095°01'0 0.9
2018-May-18 04:00N 29°44' W 095°02'4 7.4
2018-May-18 03:30N 29°46' W 095°05'1 2.1
2018-May-18 03:01N 29°45' W 095°06'0 0.6
2018-May-18 02:30N 29°45' W 095°06'0 0.9
2018-May-18 01:58N 29°45' W 095°06'1 0.1
2018-May-17 10:49N 29°44' W 095°07'0 0.2
2018-May-17 09:41N 29°45' W 095°06'1 0.4
2018-May-17 08:12N 29°44' W 095°07'0 0.0
2018-May-17 08:00N 29°44' W 095°07'0 0.0
2018-May-17 07:30N 29°44' W 095°07'1 1.3
2018-May-17 06:52N 29°45' W 095°06'1 1.4
2018-May-17 06:06N 29°46' W 095°05'0 0.1
2018-May-17 06:00N 29°46' W 095°05'2 2.3
2018-May-17 05:17N 29°45' W 095°07'0 0.0
2018-May-17 04:41N 29°45' W 095°07'0 0.0
2018-May-17 04:27N 29°45' W 095°07'2 3.8
2018-May-17 04:00N 29°46' W 095°05'0 0.0
2018-May-17 03:28N 29°46' W 095°05'1 3.1
2018-May-17 03:00N 29°45' W 095°06'1 1.1
2018-May-17 02:29N 29°44' W 095°07'2 0.1
2018-May-16 14:51N 29°44' W 095°09'1 1.6
2018-May-16 14:14N 29°45' W 095°10'0 0.0
2018-May-16 13:52N 29°45' W 095°10'0 0.0
2018-May-16 13:29N 29°45' W 095°10'0 0.1
2018-May-16 13:00N 29°45' W 095°10'2 4.9
2018-May-16 12:30N 29°44' W 095°07'1 2.6
2018-May-16 11:58N 29°45' W 095°06'0 0.0
2018-May-16 11:29N 29°45' W 095°06'1 2.3
2018-May-16 11:00N 29°45' W 095°07'0 0.0
2018-May-16 10:29N 29°45' W 095°07'0 0.0
2018-May-16 09:53N 29°45' W 095°07'1 1.6
2018-May-16 09:30N 29°45' W 095°06'0 0.2
2018-May-16 09:00N 29°45' W 095°06'0 0.6
2018-May-16 08:31N 29°45' W 095°06'0 0.7
2018-May-16 08:01N 29°45' W 095°07'1 1.7
2018-May-16 07:31N 29°44' W 095°08'0 0.0
2018-May-16 07:00N 29°44' W 095°08'1 1.9
2018-May-16 06:29N 29°45' W 095°06'2 4.0
2018-May-16 06:00N 29°46' W 095°05'4 7.8
2018-May-16 05:30N 29°43' W 095°01'1 2.2
2018-May-16 04:57N 29°42' W 095°01'0 0.0
2018-May-16 04:30N 29°42' W 095°01'0 0.0
2018-May-16 04:00N 29°42' W 095°01'0 0.0
2018-May-16 03:30N 29°42' W 095°01'0 0.0
2018-May-16 03:00N 29°42' W 095°01'0 0.0
2018-May-16 02:30N 29°42' W 095°01'2 4.8
2018-May-16 02:00N 29°44' W 095°03'0 0.3
2018-May-16 01:24N 29°44' W 095°03'2 3.9
2018-May-16 01:00N 29°43' W 095°01'1 2.1
2018-May-16 00:30N 29°42' W 095°01'0 0.0
2018-May-15 21:10N 29°42' W 095°01'2 6.9
2018-May-15 20:50N 29°44' W 095°03'2 1.1
2018-May-15 18:50N 29°42' W 095°01'2 6.5
2018-May-15 18:30N 29°41' W 094°59'0 0.3
2018-May-15 18:01N 29°41' W 094°59'7 2.4
2018-May-15 15:07N 29°45' W 095°06'1 1.2
2018-May-15 14:29N 29°45' W 095°06'2 3.4
2018-May-15 14:00N 29°46' W 095°04'3 6.6
2018-May-15 13:30N 29°44' W 095°08'2 4.4
2018-May-15 12:59N 29°45' W 095°10'0 0.2
2018-May-15 12:30N 29°45' W 095°10'1 2.6
2018-May-15 12:00N 29°44' W 095°09'2 4.0
2018-May-15 11:29N 29°44' W 095°07'0 0.0
2018-May-15 10:23N 29°44' W 095°07'0 0.0
2018-May-15 09:54N 29°44' W 095°07'1 1.8
2018-May-15 09:19N 29°44' W 095°08'1 1.3
2018-May-15 08:54N 29°44' W 095°07'1 1.3
2018-May-15 08:29N 29°44' W 095°07'0 0.0
2018-May-15 06:50N 29°45' W 095°07'0 0.0
2018-May-15 06:14N 29°45' W 095°07'0 0.0
2018-May-15 05:47N 29°45' W 095°07'0 0.0
2018-May-15 05:27N 29°45' W 095°07'1 2.0
2018-May-15 04:56N 29°44' W 095°08'1 1.5
2018-May-15 04:14N 29°45' W 095°07'0 0.0
2018-May-15 03:53N 29°45' W 095°07'0 0.0
2018-May-15 03:26N 29°45' W 095°07'0 0.0
2018-May-15 02:59N 29°45' W 095°07'0 0.0
2018-May-15 02:08N 29°45' W 095°07'0 0.0
2018-May-15 01:59N 29°45' W 095°07'0 0.0
2018-May-15 01:20N 29°45' W 095°07'5 0.4
2018-May-14 13:03N 29°42' W 095°01'0 8.8
2018-May-14 13:00N 29°43' W 095°01'5 0.8
2018-May-14 07:07N 29°46' W 095°05'1 0.5
2018-May-14 04:53N 29°45' W 095°06'0 0.0
2018-May-13 20:35N 29°45' W 095°06'0 1.5
2018-May-13 20:30N 29°45' W 095°06'3 0.7
2018-May-13 15:42N 29°45' W 095°10'8 3.4
2018-May-13 13:12N 29°42' W 095°01'2 9.9
2018-May-13 12:59N 29°41' W 094°59'4 8.5
2018-May-13 12:30N 29°37' W 094°58'2 4.3
2018-May-13 11:56N 29°37' W 095°01'0 0.9
2018-May-13 11:30N 29°37' W 095°02'0 0.0
2018-May-13 11:00N 29°37' W 095°02'0 0.0
2018-May-13 10:30N 29°37' W 095°02'0 0.0
2018-May-13 10:00N 29°37' W 095°02'0 0.0
2018-May-13 09:30N 29°37' W 095°02'0 0.0
2018-May-13 08:57N 29°37' W 095°02'0 0.2
2018-May-13 08:30N 29°37' W 095°02'0 0.8
2018-May-13 08:00N 29°37' W 095°01'0 0.7
2018-May-13 07:30N 29°37' W 095°02'0 0.0
2018-May-13 06:59N 29°37' W 095°02'0 0.0
2018-May-13 06:29N 29°37' W 095°02'0 0.1
2018-May-13 06:00N 29°37' W 095°02'0 0.5
2018-May-13 05:30N 29°37' W 095°01'2 3.1
2018-May-13 05:00N 29°37' W 094°59'2 3.3
2018-May-13 04:28N 29°37' W 095°02'0 0.0
2018-May-13 03:58N 29°37' W 095°02'0 0.0
2018-May-13 03:28N 29°37' W 095°02'0 0.0
2018-May-13 02:58N 29°37' W 095°02'0 0.0
2018-May-13 02:28N 29°37' W 095°02'0 0.0
2018-May-13 01:58N 29°37' W 095°02'0 0.0
2018-May-13 01:28N 29°37' W 095°02'0 0.0
2018-May-13 01:00N 29°37' W 095°02'0 0.0
2018-May-13 00:28N 29°37' W 095°02'0 0.0
2018-May-12 23:57N 29°37' W 095°02'0 0.0
2018-May-12 23:27N 29°37' W 095°02'  
Track history (hours):
 
Tides and Currents Weather Stations Pressure Air Temp Water Temp Dewpoint Dewpoint Depression Visibility Wind Speed Wind Dir Waves Ship Positions

David B

Owner: G & H TOWING COMPANY, Galveston, TX. More information available from US FCC via Universal Licensing System and Coast Guard Vessel Documentation Center.

Last reported at 2018-May-22 23:06 UTC. Time now 2018-May-23 15:13 UTC.
Position N 29°44' W 095°09'.

Length 24 m; draft 5.4 m.

Type: Tug. MMSI: 367730910.

Date/timePositionNaut miles runAvg speedWind from/ knotsBaromVisibWave heightAir tempDewpointWater temp
2018-May-22 23:06N 29°44' W 095°09'1 0.2
2018-May-22 18:37N 29°45' W 095°10'2 0.6
2018-May-22 15:15N 29°44' W 095°08'1 0.6
2018-May-22 13:13N 29°44' W 095°07'2 7.6
2018-May-22 12:55N 29°44' W 095°09'6 1.8
2018-May-22 09:38N 29°44' W 095°02'2 7.0
2018-May-22 09:22N 29°42' W 095°01'3 7.7
2018-May-22 09:00N 29°40' W 094°59'4 7.2
2018-May-22 08:30N 29°37' W 094°58'3 5.3
2018-May-22 07:59N 29°37' W 095°02'0 0.0
2018-May-22 07:29N 29°37' W 095°02'0 0.0
2018-May-22 06:59N 29°37' W 095°02'0 0.0
2018-May-22 06:29N 29°37' W 095°02'0 0.0
2018-May-22 05:59N 29°37' W 095°02'0 0.0
2018-May-22 05:29N 29°37' W 095°02'0 0.0
2018-May-22 04:59N 29°37' W 095°02'0 0.5
2018-May-22 04:30N 29°37' W 095°01'1 2.1
2018-May-22 04:00N 29°37' W 095°00'1 1.1
2018-May-22 03:20N 29°37' W 095°01'0 0.0
2018-May-22 02:59N 29°37' W 095°01'0 0.0
2018-May-22 02:26N 29°37' W 095°01'0 0.0
2018-May-22 01:59N 29°37' W 095°01'0 0.0
2018-May-22 01:29N 29°37' W 095°01'0 0.0
2018-May-22 00:59N 29°37' W 095°01'0 0.0
2018-May-22 00:29N 29°37' W 095°01'0 0.0
2018-May-21 23:59N 29°37' W 095°01'0 0.0
2018-May-21 23:30N 29°37' W 095°01'3 6.3
2018-May-21 23:00N 29°38' W 094°58'3 5.7
2018-May-21 22:28N 29°41' W 094°59'1 1.6
2018-May-21 21:49N 29°41' W 095°00'1 4.1
2018-May-21 21:30N 29°41' W 094°59'2 2.1
2018-May-21 20:25N 29°42' W 095°01'3 6.4
2018-May-21 20:00N 29°41' W 094°59'3 0.7
2018-May-21 16:22N 29°42' W 095°01'2 5.0
2018-May-21 16:00N 29°41' W 094°60'0 0.2
2018-May-21 15:28N 29°41' W 094°60'0 0.0
2018-May-21 14:46N 29°41' W 094°60'0 0.0
2018-May-21 14:13N 29°41' W 094°60'0 0.0
2018-May-21 13:46N 29°41' W 094°60'0 0.0
2018-May-21 13:16N 29°41' W 094°60'0 0.0
2018-May-21 12:58N 29°41' W 094°60'1 1.4
2018-May-21 12:28N 29°41' W 095°01'0 0.0
2018-May-21 11:47N 29°41' W 095°01'0 0.0
2018-May-21 11:28N 29°41' W 095°01'1 2.5
2018-May-21 11:00N 29°42' W 094°60'2 1.0
2018-May-21 09:25N 29°43' W 095°01'2 5.5
2018-May-21 09:00N 29°41' W 094°59'0 0.4
2018-May-21 08:29N 29°41' W 094°60'0 0.0
2018-May-21 08:00N 29°41' W 094°60'0 0.0
2018-May-21 07:30N 29°41' W 094°60'0 0.0
2018-May-21 06:14N 29°41' W 094°60'0 0.0
2018-May-21 05:45N 29°41' W 094°60'0 0.0
2018-May-21 05:20N 29°41' W 094°60'0 0.0
2018-May-21 04:59N 29°41' W 094°60'0 0.0
2018-May-21 04:29N 29°41' W 094°60'0 0.0
2018-May-21 03:50N 29°41' W 094°60'0 0.0
2018-May-21 03:26N 29°41' W 094°60'0 0.0
2018-May-21 02:59N 29°41' W 094°60'0 0.0
2018-May-21 02:23N 29°41' W 094°60'0 0.0
2018-May-21 01:59N 29°41' W 094°60'0 0.0
2018-May-21 01:29N 29°41' W 094°60'1 2.0
2018-May-21 00:59N 29°40' W 094°59'1 1.3
2018-May-21 00:27N 29°41' W 094°59'0 0.0
2018-May-20 23:57N 29°41' W 094°59'3 4.9
2018-May-20 23:26N 29°39' W 094°58'2 5.2
2018-May-20 23:00N 29°37' W 094°59'1 1.8
2018-May-20 22:31N 29°37' W 095°01'0 0.0
2018-May-20 22:00N 29°37' W 095°01'0 0.0
2018-May-20 21:30N 29°37' W 095°01'0 0.0
2018-May-20 21:00N 29°37' W 095°01'0 0.0
2018-May-20 20:30N 29°37' W 095°01'0 0.0
2018-May-20 20:00N 29°37' W 095°01'1 1.7
2018-May-20 19:28N 29°37' W 095°02'0 0.0
2018-May-20 18:58N 29°37' W 095°02'0 0.0
2018-May-20 18:28N 29°37' W 095°02'0 0.0
2018-May-20 17:58N 29°37' W 095°02'0 0.0
2018-May-20 17:28N 29°37' W 095°02'0 0.0
2018-May-20 16:58N 29°37' W 095°02'0 0.0
2018-May-20 16:29N 29°37' W 095°02'0 0.1
2018-May-20 15:59N 29°37' W 095°02'0 0.2
2018-May-20 15:31N 29°37' W 095°02'0 0.0
2018-May-20 15:00N 29°37' W 095°02'0 0.0
2018-May-20 14:30N 29°37' W 095°02'0 0.8
2018-May-20 13:59N 29°37' W 095°01'0 0.0
2018-May-20 13:26N 29°37' W 095°01'0 0.0
2018-May-20 12:59N 29°37' W 095°01'0 0.0
2018-May-20 12:29N 29°37' W 095°01'0 0.0
2018-May-20 11:59N 29°37' W 095°01'0 0.0
2018-May-20 11:29N 29°37' W 095°01'0 0.0
2018-May-20 11:00N 29°37' W 095°01'0 0.6
2018-May-20 10:30N 29°37' W 095°01'1 1.3
2018-May-20 10:00N 29°37' W 095°01'1 1.0
2018-May-20 09:29N 29°37' W 095°01'0 0.0
2018-May-20 09:00N 29°37' W 095°01'0 0.0
2018-May-20 08:30N 29°37' W 095°01'0 0.0
2018-May-20 08:00N 29°37' W 095°01'0 0.0
2018-May-20 07:30N 29°37' W 095°01'0 0.0
2018-May-20 07:00N 29°37' W 095°01'0 0.0
2018-May-20 06:30N 29°37' W 095°01'0 0.0
2018-May-20 05:57N 29°37' W 095°01'0 0.0
2018-May-20 05:30N 29°37' W 095°01'0 0.0
2018-May-20 05:00N 29°37' W 095°01'0 0.0
2018-May-20 04:27N 29°37' W 095°01'0 0.0
2018-May-20 04:00N 29°37' W 095°01'0 0.0
2018-May-20 03:30N 29°37' W 095°01'0 0.0
2018-May-20 02:55N 29°37' W 095°01'0 0.8
2018-May-20 02:30N 29°37' W 095°01'0 0.4
2018-May-20 02:00N 29°37' W 095°01'2 3.2
2018-May-20 01:30N 29°37' W 094°59'0 0.0
2018-May-20 01:01N 29°37' W 094°59'1 1.3
2018-May-20 00:28N 29°37' W 095°00'0 0.0
2018-May-19 23:58N 29°37' W 095°00'0 0.0
2018-May-19 23:28N 29°37' W 095°00'0 0.0
2018-May-19 22:58N 29°37' W 095°00'0 0.0
2018-May-19 22:28N 29°37' W 095°00'0 0.0
2018-May-19 21:58N 29°37' W 095°00'0 0.0
2018-May-19 21:28N 29°37' W 095°00'0 0.0
2018-May-19 20:58N 29°37' W 095°00'0 0.0
2018-May-19 20:28N 29°37' W 095°00'0 0.0
2018-May-19 19:58N 29°37' W 095°00'0 0.0
2018-May-19 19:28N 29°37' W 095°00'0 0.2
2018-May-19 19:00N 29°37' W 095°00'1 1.2
2018-May-19 18:30N 29°37' W 095°01'1 1.4
2018-May-19 18:00N 29°37' W 095°00'3 5.6
2018-May-19 17:30N 29°36' W 094°57'2 4.1
2018-May-19 17:00N 29°38' W 094°58'4 8.2
2018-May-19 16:30N 29°42' W 094°60'4 6.9
2018-May-19 15:54N 29°44' W 095°04'2 1.0
2018-May-19 13:30N 29°45' W 095°06'0 0.2
2018-May-19 12:58N 29°45' W 095°06'5 3.7
2018-May-19 11:35N 29°42' W 095°01'1 8.8
2018-May-19 11:26N 29°42' W 094°60'1 2.1
2018-May-19 10:57N 29°41' W 094°60'0 0.4
2018-May-19 10:30N 29°41' W 094°60'2 4.5
2018-May-19 10:00N 29°39' W 094°58'0 0.2
2018-May-19 09:30N 29°39' W 094°58'2 4.9
2018-May-19 09:00N 29°41' W 094°59'2 0.1
2018-May-18 09:40N 29°42' W 095°01'0 0.0
2018-May-18 09:16N 29°42' W 095°01'0 0.0
2018-May-18 09:00N 29°42' W 095°01'1 2.8
2018-May-18 08:30N 29°42' W 094°60'1 2.1
2018-May-18 08:00N 29°41' W 095°00'0 0.2
2018-May-18 07:00N 29°41' W 095°00'1 2.6
2018-May-18 06:30N 29°42' W 095°01'2 3.1
2018-May-18 06:00N 29°43' W 095°01'0 1.0
2018-May-18 05:30N 29°44' W 095°02'0 0.9
2018-May-18 05:00N 29°44' W 095°01'0 0.0
2018-May-18 04:30N 29°44' W 095°01'0 0.9
2018-May-18 04:00N 29°44' W 095°02'4 7.4
2018-May-18 03:30N 29°46' W 095°05'1 2.1
2018-May-18 03:01N 29°45' W 095°06'0 0.6
2018-May-18 02:30N 29°45' W 095°06'0 0.9
2018-May-18 01:58N 29°45' W 095°06'1 0.1
2018-May-17 10:49N 29°44' W 095°07'0 0.2
2018-May-17 09:41N 29°45' W 095°06'1 0.4
2018-May-17 08:12N 29°44' W 095°07'0 0.0
2018-May-17 08:00N 29°44' W 095°07'0 0.0
2018-May-17 07:30N 29°44' W 095°07'1 1.3
2018-May-17 06:52N 29°45' W 095°06'1 1.4
2018-May-17 06:06N 29°46' W 095°05'0 0.1
2018-May-17 06:00N 29°46' W 095°05'2 2.3
2018-May-17 05:17N 29°45' W 095°07'0 0.0
2018-May-17 04:41N 29°45' W 095°07'0 0.0
2018-May-17 04:27N 29°45' W 095°07'2 3.8
2018-May-17 04:00N 29°46' W 095°05'0 0.0
2018-May-17 03:28N 29°46' W 095°05'1 3.1
2018-May-17 03:00N 29°45' W 095°06'1 1.1
2018-May-17 02:29N 29°44' W 095°07'2 0.1
2018-May-16 14:51N 29°44' W 095°09'1 1.6
2018-May-16 14:14N 29°45' W 095°10'0 0.0
2018-May-16 13:52N 29°45' W 095°10'0 0.0
2018-May-16 13:29N 29°45' W 095°10'0 0.1
2018-May-16 13:00N 29°45' W 095°10'2 4.9
2018-May-16 12:30N 29°44' W 095°07'1 2.6
2018-May-16 11:58N 29°45' W 095°06'0 0.0
2018-May-16 11:29N 29°45' W 095°06'1 2.3
2018-May-16 11:00N 29°45' W 095°07'0 0.0
2018-May-16 10:29N 29°45' W 095°07'0 0.0
2018-May-16 09:53N 29°45' W 095°07'1 1.6
2018-May-16 09:30N 29°45' W 095°06'0 0.2
2018-May-16 09:00N 29°45' W 095°06'0 0.6
2018-May-16 08:31N 29°45' W 095°06'0 0.7
2018-May-16 08:01N 29°45' W 095°07'1 1.7
2018-May-16 07:31N 29°44' W 095°08'0 0.0
2018-May-16 07:00N 29°44' W 095°08'1 1.9
2018-May-16 06:29N 29°45' W 095°06'2 4.0
2018-May-16 06:00N 29°46' W 095°05'4 7.8
2018-May-16 05:30N 29°43' W 095°01'1 2.2
2018-May-16 04:57N 29°42' W 095°01'0 0.0
2018-May-16 04:30N 29°42' W 095°01'0 0.0
2018-May-16 04:00N 29°42' W 095°01'0 0.0
2018-May-16 03:30N 29°42' W 095°01'0 0.0
2018-May-16 03:00N 29°42' W 095°01'0 0.0
2018-May-16 02:30N 29°42' W 095°01'2 4.8
2018-May-16 02:00N 29°44' W 095°03'0 0.3
2018-May-16 01:24N 29°44' W 095°03'2 3.9
2018-May-16 01:00N 29°43' W 095°01'1 2.1
2018-May-16 00:30N 29°42' W 095°01'0 0.0
2018-May-15 21:10N 29°42' W 095°01'2 6.9
2018-May-15 20:50N 29°44' W 095°03'2 1.1
2018-May-15 18:50N 29°42' W 095°01'2 6.5
2018-May-15 18:30N 29°41' W 094°59'0 0.3
2018-May-15 18:01N 29°41' W 094°59'7 2.4
2018-May-15 15:07N 29°45' W 095°06'1 1.2
2018-May-15 14:29N 29°45' W 095°06'2 3.4
2018-May-15 14:00N 29°46' W 095°04'3 6.6
2018-May-15 13:30N 29°44' W 095°08'2 4.4
2018-May-15 12:59N 29°45' W 095°10'0 0.2
2018-May-15 12:30N 29°45' W 095°10'1 2.6
2018-May-15 12:00N 29°44' W 095°09'2 4.0
2018-May-15 11:29N 29°44' W 095°07'0 0.0
2018-May-15 10:23N 29°44' W 095°07'0 0.0
2018-May-15 09:54N 29°44' W 095°07'1 1.8
2018-May-15 09:19N 29°44' W 095°08'1 1.3
2018-May-15 08:54N 29°44' W 095°07'1 1.3
2018-May-15 08:29N 29°44' W 095°07'0 0.0
2018-May-15 06:50N 29°45' W 095°07'0 0.0
2018-May-15 06:14N 29°45' W 095°07'0 0.0
2018-May-15 05:47N 29°45' W 095°07'0 0.0
2018-May-15 05:27N 29°45' W 095°07'1 2.0
2018-May-15 04:56N 29°44' W 095°08'1 1.5
2018-May-15 04:14N 29°45' W 095°07'0 0.0
2018-May-15 03:53N 29°45' W 095°07'0 0.0
2018-May-15 03:26N 29°45' W 095°07'0 0.0
2018-May-15 02:59N 29°45' W 095°07'0 0.0
2018-May-15 02:08N 29°45' W 095°07'0 0.0
2018-May-15 01:59N 29°45' W 095°07'0 0.0
2018-May-15 01:20N 29°45' W 095°07'5 0.4
2018-May-14 13:03N 29°42' W 095°01'0 8.8
2018-May-14 13:00N 29°43' W 095°01'5 0.8
2018-May-14 07:07N 29°46' W 095°05'1 0.5
2018-May-14 04:53N 29°45' W 095°06'0 0.0
2018-May-13 20:35N 29°45' W 095°06'0 1.5
2018-May-13 20:30N 29°45' W 095°06'3 0.7
2018-May-13 15:42N 29°45' W 095°10'8 3.4
2018-May-13 13:12N 29°42' W 095°01'2 9.9
2018-May-13 12:59N 29°41' W 094°59'4 8.5
2018-May-13 12:30N 29°37' W 094°58'2 4.3
2018-May-13 11:56N 29°37' W 095°01'0 0.9
2018-May-13 11:30N 29°37' W 095°02'0 0.0
2018-May-13 11:00N 29°37' W 095°02'0 0.0
2018-May-13 10:30N 29°37' W 095°02'0 0.0
2018-May-13 10:00N 29°37' W 095°02'0 0.0
2018-May-13 09:30N 29°37' W 095°02'0 0.0
2018-May-13 08:57N 29°37' W 095°02'0 0.2
2018-May-13 08:30N 29°37' W 095°02'0 0.8
2018-May-13 08:00N 29°37' W 095°01'0 0.7
2018-May-13 07:30N 29°37' W 095°02'0 0.0
2018-May-13 06:59N 29°37' W 095°02'0 0.0
2018-May-13 06:29N 29°37' W 095°02'0 0.1
2018-May-13 06:00N 29°37' W 095°02'0 0.5
2018-May-13 05:30N 29°37' W 095°01'2 3.1
2018-May-13 05:00N 29°37' W 094°59'2 3.3
2018-May-13 04:28N 29°37' W 095°02'0 0.0
2018-May-13 03:58N 29°37' W 095°02'0 0.0
2018-May-13 03:28N 29°37' W 095°02'0 0.0
2018-May-13 02:58N 29°37' W 095°02'0 0.0
2018-May-13 02:28N 29°37' W 095°02'0 0.0
2018-May-13 01:58N 29°37' W 095°02'0 0.0
2018-May-13 01:28N 29°37' W 095°02'0 0.0
2018-May-13 01:00N 29°37' W 095°02'0 0.0
2018-May-13 00:28N 29°37' W 095°02'0 0.0
2018-May-12 23:57N 29°37' W 095°02'0 0.0
2018-May-12 23:27N 29°37' W 095°02'  

Dump ship's entire track history